Check out our new BloomSky Weather System.

Active alerts

Houston, TX
  Details for Houston, TX Dense Fog Advisory


Thunder radar  blitzortung!


Rain radar more information rain snow radar


Visit our other weather sites:

Template documentation
and downloads

And another site



Weather Underground History page Text

Daily Summary for June 1, 2017 Units:  Metric    English   Both
« Previous Day
Next Day »
Daily Weekly Monthly Yearly Custom
  High: Low: Average:
Temperature: 29.2 °C 21.1 °C 24.8 °C
Dew Point: 25 °C 20.4 °C 22.7 °C
Humidity: 98 % 74 % 88 %
Wind Speed: 17.7 km/h 0 km/h 2.7 km/h
Wind Gust: 20.9 km/h - -
Wind:- - SE
Pressure: 1016.5 hPa 1011.7 hPa -
Precipitation: 21.84 mm    
Historical Graphs
 
 
Tabular Data for June 1, 2017
Time Temperature Dew Point Pressure Wind Wind Speed Wind Gust Humidity Rainfall Rate (Hourly)
00:00 25.9 °C 24.1 °C 1015.5 hPa SSE 1.6 km/h 6.4 km/h 90 % 0 mm
00:05 25.8 °C 24 °C 1015.5 hPa Calm   4.8 km/h 90 % 0 mm
00:10 25.8 °C 24.2 °C 1015.5 hPa SSW 1.6 km/h 4.8 km/h 91 % 0 mm
00:15 25.7 °C 24.1 °C 1015.5 hPa South 8 km/h 8 km/h 91 % 0.25 mm
00:20 25.6 °C 23.8 °C 1015.5 hPa South 11.3 km/h 20.9 km/h 90 % 0.51 mm
00:25 25.1 °C 23.3 °C 1015.5 hPa South 12.9 km/h 20.9 km/h 90 % 0.51 mm
00:30 24.4 °C 22.5 °C 1015.8 hPa South 6.4 km/h 20.9 km/h 89 % 0.76 mm
00:35 23.9 °C 22.2 °C 1015.5 hPa SSE 8 km/h 16.1 km/h 90 % 0.76 mm
00:40 23.7 °C 22.1 °C 1015.8 hPa South 9.7 km/h 14.5 km/h 91 % 1.02 mm
00:45 23.4 °C 21.8 °C 1015.8 hPa South 4.8 km/h 14.5 km/h 91 % 1.02 mm
00:50 23.3 °C 21.9 °C 1015.8 hPa SSE 11.3 km/h 14.5 km/h 92 % 1.27 mm
00:55 23.2 °C 21.8 °C 1015.5 hPa ESE 9.7 km/h 12.9 km/h 92 % 1.52 mm
01:00 23.1 °C 21.7 °C 1015.5 hPa SSW 3.2 km/h 12.9 km/h 92 % 1.78 mm
01:05 22.9 °C 21.7 °C 1015.5 hPa SSE 4.8 km/h 11.3 km/h 93 % 1.78 mm
01:10 22.9 °C 21.7 °C 1015.1 hPa SSW 4.8 km/h 9.7 km/h 93 % 1.78 mm
01:15 22.8 °C 21.6 °C 1015.1 hPa Calm   8 km/h 93 % 1.78 mm
01:20 22.8 °C 21.6 °C 1015.1 hPa SSE 3.2 km/h 4.8 km/h 93 % 1.52 mm
01:25 22.8 °C 21.8 °C 1015.5 hPa South 3.2 km/h 4.8 km/h 94 % 1.52 mm
01:30 22.8 °C 21.8 °C 1015.1 hPa SSE 1.6 km/h 4.8 km/h 94 % 1.27 mm
01:35 22.7 °C 21.7 °C 1015.5 hPa SSW 3.2 km/h 6.4 km/h 94 % 1.27 mm
01:40 22.8 °C 21.8 °C 1015.5 hPa SSE 3.2 km/h 6.4 km/h 94 % 1.27 mm
01:45 22.7 °C 21.9 °C 1015.5 hPa SSE 4.8 km/h 6.4 km/h 95 % 1.27 mm
01:50 22.7 °C 21.9 °C 1015.5 hPa South 4.8 km/h 6.4 km/h 95 % 1.27 mm
01:55 22.7 °C 21.9 °C 1015.5 hPa SSE 3.2 km/h 6.4 km/h 95 % 1.27 mm
02:00 22.6 °C 21.8 °C 1015.5 hPa ESE 4.8 km/h 11.3 km/h 95 % 1.52 mm
02:05 22.6 °C 21.6 °C 1015.1 hPa ESE 3.2 km/h 11.3 km/h 94 % 2.29 mm
02:10 22.4 °C 21.6 °C 1015.1 hPa SE 3.2 km/h 11.3 km/h 95 % 2.54 mm
02:15 22.2 °C 21.2 °C 1015.1 hPa SE 3.2 km/h 8 km/h 94 % 3.05 mm
02:20 22 °C 21 °C 1015.1 hPa Calm   8 km/h 94 % 4.06 mm
02:25 21.9 °C 20.9 °C 1015.1 hPa Calm   6.4 km/h 94 % 4.83 mm
02:30 21.8 °C 20.8 °C 1015.5 hPa Calm   6.4 km/h 94 % 5.59 mm
02:35 21.6 °C 20.4 °C 1015.1 hPa SSW 6.4 km/h 8 km/h 93 % 6.35 mm
02:40 21.6 °C 20.6 °C 1015.1 hPa SSE 4.8 km/h 11.3 km/h 94 % 6.6 mm
02:45 21.8 °C 20.8 °C 1015.1 hPa SE 11.3 km/h 14.5 km/h 94 % 7.37 mm
02:50 22 °C 21 °C 1015.1 hPa SE 9.7 km/h 14.5 km/h 94 % 7.87 mm
02:55 21.9 °C 20.9 °C 1015.1 hPa SSW 4.8 km/h 14.5 km/h 94 % 8.38 mm
03:00 21.9 °C 20.9 °C 1015.1 hPa SE 4.8 km/h 11.3 km/h 94 % 8.38 mm
03:05 21.8 °C 20.8 °C 1014.8 hPa Calm   11.3 km/h 94 % 8.64 mm
03:10 21.8 °C 20.8 °C 1015.1 hPa Calm   11.3 km/h 94 % 9.14 mm
03:15 21.8 °C 21 °C 1015.1 hPa Calm   6.4 km/h 95 % 8.89 mm
03:20 21.8 °C 21 °C 1014.8 hPa Calm   1.6 km/h 95 % 8.64 mm
03:25 21.7 °C 20.7 °C 1014.8 hPa Calm     94 % 8.13 mm
03:30 21.6 °C 20.6 °C 1014.8 hPa Calm     94 % 7.62 mm
03:35 21.7 °C 20.9 °C 1014.8 hPa Calm     95 % 7.37 mm
03:40 21.7 °C 20.9 °C 1014.4 hPa Calm     95 % 7.37 mm
03:45 21.7 °C 20.9 °C 1014.4 hPa Calm     95 % 6.86 mm
03:50 21.6 °C 20.8 °C 1014.4 hPa Calm     95 % 6.1 mm
03:55 21.6 °C 20.8 °C 1014.4 hPa Calm     95 % 5.84 mm
03:57 21.6 °C 20.8 °C 1014.4 hPa Calm     95 % 5.84 mm
04:02 21.6 °C 20.8 °C 1014.4 hPa Calm     95 % 5.08 mm
04:07 21.6 °C 20.8 °C 1014.4 hPa Calm     95 % 4.57 mm
04:12 21.6 °C 20.9 °C 1014.4 hPa Calm   1.6 km/h 96 % 3.56 mm
04:17 21.6 °C 20.9 °C 1014.4 hPa Calm   1.6 km/h 96 % 3.3 mm
04:22 21.6 °C 20.9 °C 1014.4 hPa Calm   1.6 km/h 96 % 3.05 mm
04:27 21.5 °C 20.8 °C 1014.4 hPa Calm   3.2 km/h 96 % 3.05 mm
04:32 21.5 °C 20.8 °C 1014.4 hPa NNW 1.6 km/h 3.2 km/h 96 % 2.79 mm
04:37 21.5 °C 20.8 °C 1014.4 hPa Calm   3.2 km/h 96 % 2.79 mm
04:42 21.5 °C 20.8 °C 1014.4 hPa Calm   3.2 km/h 96 % 2.54 mm
04:47 21.4 °C 20.7 °C 1014.4 hPa Calm   3.2 km/h 96 % 2.29 mm
04:52 21.4 °C 20.7 °C 1014.4 hPa Calm   1.6 km/h 96 % 2.03 mm
04:57 21.5 °C 20.8 °C 1014.4 hPa Calm   1.6 km/h 96 % 1.78 mm
05:02 21.4 °C 20.7 °C 1014.4 hPa Calm   1.6 km/h 96 % 1.52 mm
05:07 21.5 °C 20.8 °C 1014.4 hPa Calm   1.6 km/h 96 % 1.52 mm
05:12 21.4 °C 20.7 °C 1014.4 hPa Calm   1.6 km/h 96 % 1.27 mm
05:17 21.4 °C 20.7 °C 1014.4 hPa Calm   1.6 km/h 96 % 1.27 mm
05:22 21.4 °C 20.9 °C 1014.4 hPa NW 1.6 km/h 3.2 km/h 97 % 1.02 mm
05:27 21.5 °C 21 °C 1014.4 hPa NW 1.6 km/h 6.4 km/h 97 % 0.76 mm
05:32 21.4 °C 20.9 °C 1014.4 hPa Calm   6.4 km/h 97 % 0.51 mm
05:37 21.4 °C 20.9 °C 1014.4 hPa Calm   6.4 km/h 97 % 0.25 mm
05:42 21.4 °C 20.9 °C 1014.4 hPa Calm   4.8 km/h 97 % 0 mm
05:47 21.3 °C 20.8 °C 1014.4 hPa ENE 1.6 km/h 3.2 km/h 97 % 0 mm
05:52 21.3 °C 20.8 °C 1014.1 hPa Calm   3.2 km/h 97 % 0 mm
05:57 21.2 °C 20.7 °C 1014.1 hPa Calm   3.2 km/h 97 % 0 mm
06:02 21.2 °C 20.7 °C 1014.4 hPa Calm   3.2 km/h 97 % 0 mm
06:07 21.2 °C 20.7 °C 1014.4 hPa Calm   3.2 km/h 97 % 0 mm
06:12 21.2 °C 20.7 °C 1014.4 hPa Calm   3.2 km/h 97 % 0 mm
06:17 21.2 °C 20.7 °C 1014.4 hPa Calm   1.6 km/h 97 % 0 mm
06:23 21.2 °C 20.7 °C 1014.4 hPa NNW 1.6 km/h 1.6 km/h 97 % 0 mm
06:28 21.2 °C 20.7 °C 1014.4 hPa Calm   3.2 km/h 97 % 0.25 mm
06:33 21.2 °C 20.7 °C 1014.4 hPa Calm   3.2 km/h 97 % 0.25 mm
06:38 21.1 °C 20.6 °C 1014.4 hPa Calm   3.2 km/h 97 % 0.25 mm
06:43 21.1 °C 20.6 °C 1014.8 hPa Calm   1.6 km/h 97 % 0.25 mm
06:48 21.1 °C 20.6 °C 1014.8 hPa NNW 1.6 km/h 1.6 km/h 97 % 0.25 mm
06:53 21.2 °C 20.7 °C 1014.8 hPa Calm   1.6 km/h 97 % 0.25 mm
06:58 21.2 °C 20.7 °C 1014.8 hPa Calm   1.6 km/h 97 % 0.25 mm
07:03 21.2 °C 20.7 °C 1015.1 hPa Calm   1.6 km/h 97 % 0.25 mm
07:08 21.3 °C 21 °C 1015.1 hPa Calm   3.2 km/h 98 % 0.25 mm
07:13 21.3 °C 21 °C 1015.1 hPa Calm   3.2 km/h 98 % 0.25 mm
07:18 21.4 °C 21.1 °C 1015.1 hPa Calm   3.2 km/h 98 % 0.25 mm
07:23 21.4 °C 21.1 °C 1015.1 hPa Calm   3.2 km/h 98 % 0.25 mm
07:28 21.5 °C 21.2 °C 1015.1 hPa Calm   3.2 km/h 98 % 0 mm
07:33 21.6 °C 21.3 °C 1015.1 hPa East 3.2 km/h 3.2 km/h 98 % 0 mm
07:38 21.6 °C 21.3 °C 1015.5 hPa Calm   4.8 km/h 98 % 0 mm
07:43 21.7 °C 21.4 °C 1015.5 hPa Calm   4.8 km/h 98 % 0 mm
07:48 21.8 °C 21.5 °C 1015.5 hPa Calm   4.8 km/h 98 % 0 mm
07:53 21.9 °C 21.6 °C 1015.5 hPa Calm   3.2 km/h 98 % 0 mm
07:58 21.9 °C 21.6 °C 1015.8 hPa Calm   3.2 km/h 98 % 0 mm
08:03 22 °C 21.7 °C 1015.8 hPa Calm   4.8 km/h 98 % 0 mm
08:08 22.1 °C 21.8 °C 1015.8 hPa NNE 3.2 km/h 8 km/h 98 % 0 mm
08:13 22.1 °C 21.8 °C 1015.5 hPa NNE 3.2 km/h 8 km/h 98 % 0 mm
08:18 22 °C 21.5 °C 1015.5 hPa Calm   8 km/h 97 % 0 mm
08:23 22 °C 21.7 °C 1015.8 hPa Calm   6.4 km/h 98 % 0 mm
08:28 22 °C 21.5 °C 1015.8 hPa ENE 1.6 km/h 4.8 km/h 97 % 0 mm
08:33 21.9 °C 21.4 °C 1015.8 hPa Calm   4.8 km/h 97 % 0 mm
08:38 22 °C 21.5 °C 1015.8 hPa Calm   4.8 km/h 97 % 0 mm
08:43 21.9 °C 21.4 °C 1015.8 hPa West 1.6 km/h 6.4 km/h 97 % 0 mm
08:48 21.9 °C 21.4 °C 1015.8 hPa East 1.6 km/h 6.4 km/h 97 % 0 mm
08:49 21.9 °C 21.4 °C 1016.1 hPa NNW 1.6 km/h 6.4 km/h 97 % 0 mm
08:54 22 °C 21.5 °C 1015.8 hPa ENE 6.4 km/h 6.4 km/h 97 % 0 mm
08:59 21.9 °C 21.4 °C 1016.1 hPa ENE 4.8 km/h 9.7 km/h 97 % 0 mm
09:04 22.2 °C 21.7 °C 1016.1 hPa Calm   9.7 km/h 97 % 0 mm
09:09 22.2 °C 21.5 °C 1016.1 hPa Calm   9.7 km/h 96 % 0 mm
09:14 22.2 °C 21.5 °C 1016.1 hPa ENE 4.8 km/h 9.7 km/h 96 % 0 mm
09:19 22.6 °C 21.9 °C 1016.1 hPa East 6.4 km/h 9.7 km/h 96 % 0 mm
09:24 22.7 °C 22 °C 1016.5 hPa NNW 4.8 km/h 9.7 km/h 96 % 0 mm
09:29 22.9 °C 22.1 °C 1016.1 hPa East 6.4 km/h 9.7 km/h 95 % 0 mm
09:34 23.2 °C 22.2 °C 1016.5 hPa ENE 4.8 km/h 9.7 km/h 94 % 0 mm
09:39 23.6 °C 22.6 °C 1016.5 hPa ESE 1.6 km/h 9.7 km/h 94 % 0 mm
09:44 23.7 °C 22.5 °C 1016.5 hPa SE 1.6 km/h 9.7 km/h 93 % 0 mm
09:49 23.8 °C 22.4 °C 1016.5 hPa ESE 1.6 km/h 9.7 km/h 92 % 0 mm
09:55 23.9 °C 22.5 °C 1016.1 hPa North 6.4 km/h 9.7 km/h 92 % 0 mm
10:00 24.1 °C 22.5 °C 1016.1 hPa Calm   9.7 km/h 91 % 0 mm
10:05 24.2 °C 22.6 °C 1016.1 hPa East 4.8 km/h 9.7 km/h 91 % 0 mm
10:10 24.4 °C 22.7 °C 1016.1 hPa North 9.7 km/h 9.7 km/h 90 % 0 mm
10:15 24.5 °C 22.7 °C 1016.1 hPa Calm   9.7 km/h 90 % 0 mm
10:20 24.7 °C 22.9 °C 1015.8 hPa SE 3.2 km/h 9.7 km/h 90 % 0 mm
10:25 25.1 °C 23.3 °C 1015.8 hPa SE 1.6 km/h 12.9 km/h 90 % 0 mm
10:30 25.4 °C 23.3 °C 1015.8 hPa SE 3.2 km/h 14.5 km/h 88 % 0 mm
10:35 25.9 °C 23.9 °C 1015.8 hPa South 11.3 km/h 14.5 km/h 89 % 0 mm
10:40 26 °C 23.3 °C 1015.8 hPa NNW 8 km/h 14.5 km/h 85 % 0 mm
10:45 26.1 °C 23.4 °C 1015.5 hPa ESE 4.8 km/h 14.5 km/h 85 % 0 mm
10:50 26.2 °C 23.5 °C 1015.5 hPa SE 6.4 km/h 14.5 km/h 85 % 0 mm
10:55 26.2 °C 23.3 °C 1015.5 hPa ESE 3.2 km/h 14.5 km/h 84 % 0 mm
11:00 26.4 °C 23.5 °C 1015.5 hPa East 6.4 km/h 14.5 km/h 84 % 0 mm
11:05 26.7 °C 23.8 °C 1015.5 hPa ENE 1.6 km/h 12.9 km/h 84 % 0 mm
11:10 26.8 °C 23.7 °C 1015.5 hPa Calm   12.9 km/h 83 % 0 mm
11:15 26.9 °C 23.6 °C 1015.5 hPa ENE 6.4 km/h 11.3 km/h 82 % 0 mm
11:20 26.8 °C 23.7 °C 1015.5 hPa South 3.2 km/h 11.3 km/h 83 % 0 mm
11:25 26.8 °C 23.7 °C 1015.5 hPa NNW 1.6 km/h 11.3 km/h 83 % 0 mm
11:30 26.9 °C 23.8 °C 1015.5 hPa East 9.7 km/h 9.7 km/h 83 % 0 mm
11:35 26.9 °C 23.6 °C 1015.5 hPa SE 3.2 km/h 11.3 km/h 82 % 0 mm
11:37 26.9 °C 23.6 °C 1015.5 hPa ENE 8 km/h 11.3 km/h 82 % 0 mm
11:42 26.8 °C 23.5 °C 1015.5 hPa East 3.2 km/h 12.9 km/h 82 % 0 mm
11:47 26.8 °C 23.5 °C 1015.5 hPa ESE 1.6 km/h 12.9 km/h 82 % 0 mm
11:52 26.9 °C 23.8 °C 1015.5 hPa SE 3.2 km/h 12.9 km/h 83 % 0 mm
11:57 27.1 °C 24 °C 1015.5 hPa NE 3.2 km/h 14.5 km/h 83 % 0 mm
12:02 27.6 °C 24 °C 1015.1 hPa NNE 9.7 km/h 14.5 km/h 81 % 0 mm
12:07 27.8 °C 24 °C 1015.1 hPa ESE 8 km/h 14.5 km/h 80 % 0 mm
12:12 27.9 °C 23.9 °C 1015.1 hPa SE 8 km/h 17.7 km/h 79 % 0 mm
12:17 27.9 °C 23.9 °C 1015.1 hPa East 9.7 km/h 17.7 km/h 79 % 0 mm
12:22 28.2 °C 24.6 °C 1015.1 hPa North 8 km/h 17.7 km/h 81 % 0 mm
12:27 28.1 °C 23.9 °C 1014.8 hPa NNE 3.2 km/h 16.1 km/h 78 % 0 mm
12:32 28.1 °C 23.9 °C 1014.8 hPa SSE 3.2 km/h 19.3 km/h 78 % 0 mm
12:37 28.4 °C 24.4 °C 1014.8 hPa ESE 6.4 km/h 19.3 km/h 79 % 0 mm
12:42 28.4 °C 24.2 °C 1014.8 hPa ESE 9.7 km/h 19.3 km/h 78 % 0 mm
12:47 28.1 °C 23.5 °C 1014.8 hPa East 6.4 km/h 16.1 km/h 76 % 0 mm
12:52 27.9 °C 23.5 °C 1014.8 hPa SE 8 km/h 16.1 km/h 77 % 0 mm
12:57 27.8 °C 23.8 °C 1014.8 hPa ESE 4.8 km/h 16.1 km/h 79 % 0 mm
13:02 27.8 °C 23.6 °C 1014.8 hPa NE 11.3 km/h 16.1 km/h 78 % 0 mm
13:07 27.7 °C 23.5 °C 1014.8 hPa ESE 17.7 km/h 17.7 km/h 78 % 0 mm
13:12 27.3 °C 23.5 °C 1014.8 hPa SE 4.8 km/h 17.7 km/h 80 % 0 mm
13:17 26.7 °C 23.6 °C 1014.8 hPa East 4.8 km/h 17.7 km/h 83 % 0.76 mm
13:22 26.4 °C 23.9 °C 1014.8 hPa East 3.2 km/h 17.7 km/h 86 % 1.27 mm
13:27 25.9 °C 23.6 °C 1014.4 hPa ENE 4.8 km/h 11.3 km/h 87 % 1.52 mm
13:32 25.7 °C 23.7 °C 1014.4 hPa Calm   9.7 km/h 89 % 1.78 mm
13:37 25.6 °C 23.8 °C 1014.4 hPa Calm   9.7 km/h 90 % 1.78 mm
13:42 25.6 °C 24 °C 1014.4 hPa Calm   6.4 km/h 91 % 2.03 mm
13:47 25.6 °C 24 °C 1014.4 hPa Calm   6.4 km/h 91 % 2.03 mm
13:52 25.7 °C 24.3 °C 1014.4 hPa Calm   6.4 km/h 92 % 2.03 mm
13:57 25.7 °C 24.1 °C 1014.4 hPa Calm   4.8 km/h 91 % 2.03 mm
14:02 25.6 °C 24.2 °C 1014.4 hPa Calm   6.4 km/h 92 % 2.03 mm
14:07 25.7 °C 24.3 °C 1014.4 hPa Calm   6.4 km/h 92 % 2.03 mm
14:12 25.6 °C 24.2 °C 1014.4 hPa NNW 3.2 km/h 6.4 km/h 92 % 2.29 mm
14:17 25.6 °C 24.2 °C 1014.4 hPa Calm   6.4 km/h 92 % 1.52 mm
14:22 25.6 °C 24.2 °C 1014.4 hPa Calm   6.4 km/h 92 % 1.02 mm
14:27 25.9 °C 24.7 °C 1014.1 hPa Calm   9.7 km/h 93 % 0.76 mm
14:32 26.3 °C 24.9 °C 1014.1 hPa East 8 km/h 9.7 km/h 92 % 0.51 mm
14:37 26.3 °C 24.5 °C 1014.1 hPa SSE 6.4 km/h 9.7 km/h 90 % 0.51 mm
14:42 26.5 °C 24.3 °C 1014.1 hPa Calm   11.3 km/h 88 % 0.25 mm
14:47 27.2 °C 25 °C 1013.8 hPa SE 9.7 km/h 11.3 km/h 88 % 0.25 mm
14:52 27.4 °C 24.3 °C 1013.8 hPa SSE 3.2 km/h 11.3 km/h 83 % 0.25 mm
14:57 27.4 °C 24.1 °C 1013.8 hPa ESE 4.8 km/h 11.3 km/h 82 % 0.25 mm
15:02 27.4 °C 24.1 °C 1013.8 hPa East 4.8 km/h 11.3 km/h 82 % 0.25 mm
15:07 27.6 °C 24 °C 1013.8 hPa SSE 6.4 km/h 9.7 km/h 81 % 0.25 mm
15:12 27.9 °C 24.3 °C 1013.8 hPa SSE 6.4 km/h 11.3 km/h 81 % 0 mm
15:17 28.1 °C 24.1 °C 1013.8 hPa SE 3.2 km/h 11.3 km/h 79 % 0 mm
15:22 28.3 °C 24.3 °C 1013.8 hPa SE 3.2 km/h 19.3 km/h 79 % 0 mm
15:27 28.3 °C 23.7 °C 1013.4 hPa South 6.4 km/h 19.3 km/h 76 % 0 mm
15:32 28.2 °C 23.3 °C 1013.4 hPa ESE 4.8 km/h 19.3 km/h 75 % 0 mm
15:37 28.2 °C 23.6 °C 1013.4 hPa ESE 3.2 km/h 19.3 km/h 76 % 0 mm
15:42 28.3 °C 23.2 °C 1013.4 hPa East 8 km/h 16.1 km/h 74 % 0 mm
15:47 28.4 °C 23.5 °C 1013.4 hPa East 3.2 km/h 16.1 km/h 75 % 0 mm
15:52 28.5 °C 23.4 °C 1013.4 hPa ESE 4.8 km/h 16.1 km/h 74 % 0 mm
15:57 28.4 °C 23.5 °C 1013.4 hPa South 3.2 km/h 16.1 km/h 75 % 0 mm
16:02 28.8 °C 24.4 °C 1013.1 hPa East 8 km/h 9.7 km/h 77 % 0 mm
16:07 29.2 °C 24.3 °C 1013.1 hPa ENE 3.2 km/h 11.3 km/h 75 % 0 mm
16:12 29 °C 24.3 °C 1013.1 hPa NNW 1.6 km/h 11.3 km/h 76 % 0 mm
16:17 28.5 °C 23.9 °C 1013.1 hPa East 3.2 km/h 11.3 km/h 76 % 0 mm
16:22 28.3 °C 24.1 °C 1013.1 hPa East 1.6 km/h 9.7 km/h 78 % 0 mm
16:27 28.1 °C 23.9 °C 1013.1 hPa East 4.8 km/h 9.7 km/h 78 % 0 mm
16:33 27.6 °C 23.2 °C 1013.1 hPa NW 1.6 km/h 9.7 km/h 77 % 0 mm
16:38 27.5 °C 23.5 °C 1012.8 hPa Calm   9.7 km/h 79 % 0 mm
16:43 27.5 °C 23.5 °C 1012.8 hPa NNW 1.6 km/h 9.7 km/h 79 % 0 mm
16:48 27.6 °C 24 °C 1012.8 hPa Calm   4.8 km/h 81 % 0 mm
16:53 27.6 °C 24.2 °C 1012.8 hPa SE 1.6 km/h 4.8 km/h 82 % 0.51 mm
16:58 27.5 °C 24.4 °C 1012.8 hPa NNE 1.6 km/h 4.8 km/h 83 % 0.51 mm
17:03 27.5 °C 24.4 °C 1012.4 hPa ENE 3.2 km/h 3.2 km/h 83 % 0.51 mm
17:08 27.6 °C 24.6 °C 1012.4 hPa ENE 3.2 km/h 3.2 km/h 84 % 0.51 mm
17:13 27.6 °C 24.6 °C 1012.4 hPa Calm   4.8 km/h 84 % 0.51 mm
17:18 27.5 °C 24.1 °C 1012.4 hPa SE 3.2 km/h 9.7 km/h 82 % 0.51 mm
17:23 27.8 °C 24.8 °C 1012.4 hPa SE 1.6 km/h 9.7 km/h 84 % 0.51 mm
17:28 28.2 °C 24.4 °C 1012.4 hPa South 3.2 km/h 9.7 km/h 80 % 0.51 mm
17:33 28.3 °C 24.1 °C 1012.4 hPa SE 3.2 km/h 11.3 km/h 78 % 0.51 mm
17:38 28.2 °C 24 °C 1012.4 hPa Calm   11.3 km/h 78 % 0.51 mm
17:43 27.9 °C 23.7 °C 1012.4 hPa East 1.6 km/h 11.3 km/h 78 % 0.51 mm
17:48 27.8 °C 23.6 °C 1012.4 hPa ESE 4.8 km/h 9.7 km/h 78 % 0.51 mm
17:53 27.8 °C 23.6 °C 1012.4 hPa East 3.2 km/h 11.3 km/h 78 % 0 mm
17:58 27.8 °C 23.8 °C 1012.4 hPa East 1.6 km/h 11.3 km/h 79 % 0 mm
18:03 27.8 °C 23.8 °C 1012.1 hPa East 3.2 km/h 11.3 km/h 79 % 0 mm
18:08 27.8 °C 23.8 °C 1012.1 hPa SE 6.4 km/h 11.3 km/h 79 % 0 mm
18:13 27.8 °C 23.8 °C 1012.1 hPa East 3.2 km/h 11.3 km/h 79 % 0 mm
18:18 27.8 °C 23.8 °C 1012.1 hPa ESE 6.4 km/h 11.3 km/h 79 % 0 mm
18:20 27.9 °C 23.9 °C 1012.1 hPa SSE 3.2 km/h 11.3 km/h 79 % 0 mm
18:25 27.9 °C 23.9 °C 1012.1 hPa SSE 3.2 km/h 11.3 km/h 79 % 0 mm
18:27 28 °C 24.2 °C 1012.1 hPa ESE 6.4 km/h 11.3 km/h 80 % 0 mm
18:32 28.2 °C 24.2 °C 1011.7 hPa East 4.8 km/h 11.3 km/h 79 % 0 mm
18:37 28.3 °C 24.1 °C 1012.1 hPa East 4.8 km/h 11.3 km/h 78 % 0 mm
18:42 28.4 °C 24.2 °C 1011.7 hPa ESE 3.2 km/h 11.3 km/h 78 % 0 mm
18:47 28.4 °C 24 °C 1011.7 hPa East 8 km/h 11.3 km/h 77 % 0 mm
18:52 28.3 °C 23.9 °C 1011.7 hPa East 3.2 km/h 11.3 km/h 77 % 0 mm
18:57 28.4 °C 24 °C 1011.7 hPa East 3.2 km/h 12.9 km/h 77 % 0 mm
19:02 28.4 °C 24 °C 1011.7 hPa East 6.4 km/h 12.9 km/h 77 % 0 mm
19:07 28.4 °C 24 °C 1011.7 hPa SW 1.6 km/h 12.9 km/h 77 % 0 mm
19:12 28.4 °C 24 °C 1011.7 hPa South 6.4 km/h 12.9 km/h 77 % 0 mm
19:17 28.3 °C 23.9 °C 1011.7 hPa SSE 3.2 km/h 12.9 km/h 77 % 0 mm
19:22 28.1 °C 23.7 °C 1011.7 hPa East 9.7 km/h 12.9 km/h 77 % 0 mm
19:28 27.8 °C 23.4 °C 1011.7 hPa East 1.6 km/h 12.9 km/h 77 % 0 mm
19:33 27.7 °C 23.5 °C 1011.7 hPa SE 3.2 km/h 12.9 km/h 78 % 0 mm
19:38 27.5 °C 23.3 °C 1011.7 hPa SSE 4.8 km/h 12.9 km/h 78 % 0 mm
19:43 27.4 °C 23.2 °C 1011.7 hPa SSW 9.7 km/h 12.9 km/h 78 % 0 mm
19:48 27.3 °C 23.1 °C 1011.7 hPa ESE 4.8 km/h 12.9 km/h 78 % 0 mm
19:53 27.2 °C 23 °C 1011.7 hPa ENE 6.4 km/h 11.3 km/h 78 % 0 mm
19:58 27.1 °C 23.1 °C 1011.7 hPa Calm   11.3 km/h 79 % 0 mm
20:03 27.1 °C 23.1 °C 1011.7 hPa Calm   8 km/h 79 % 0 mm
20:08 27 °C 23 °C 1011.7 hPa Calm   8 km/h 79 % 0 mm
20:13 26.9 °C 23.2 °C 1012.1 hPa Calm   6.4 km/h 80 % 0 mm
20:23 26.8 °C 23.5 °C 1012.1 hPa SE 1.6 km/h 11.3 km/h 82 % 0 mm
20:28 26.6 °C 23.5 °C 1012.1 hPa Calm   11.3 km/h 83 % 0 mm
20:33 26.5 °C 23.4 °C 1012.1 hPa Calm   8 km/h 83 % 0 mm
20:38 26.3 °C 23.4 °C 1012.1 hPa Calm   6.4 km/h 84 % 0 mm
20:43 26.3 °C 23.4 °C 1012.1 hPa Calm   6.4 km/h 84 % 0 mm
20:48 26.2 °C 23.3 °C 1012.1 hPa ESE 1.6 km/h 4.8 km/h 84 % 0 mm
20:53 26.1 °C 23.4 °C 1012.1 hPa ESE 1.6 km/h 4.8 km/h 85 % 0 mm
20:58 26 °C 23.3 °C 1012.4 hPa Calm   4.8 km/h 85 % 0 mm
21:03 25.9 °C 23.4 °C 1012.4 hPa Calm   4.8 km/h 86 % 0 mm
21:08 25.9 °C 23.4 °C 1012.4 hPa NE 1.6 km/h 4.8 km/h 86 % 0 mm
21:13 25.8 °C 23.3 °C 1012.4 hPa Calm   4.8 km/h 86 % 0 mm
21:18 25.7 °C 23.2 °C 1012.4 hPa Calm   4.8 km/h 86 % 0 mm
21:23 25.6 °C 23.3 °C 1012.4 hPa Calm   4.8 km/h 87 % 0 mm
21:28 25.6 °C 23.3 °C 1012.8 hPa Calm   6.4 km/h 87 % 0 mm
21:33 25.5 °C 23.2 °C 1012.8 hPa Calm   6.4 km/h 87 % 0 mm
21:38 25.4 °C 23.3 °C 1012.8 hPa Calm   6.4 km/h 88 % 0 mm
21:41 25.4 °C 23.3 °C 1012.8 hPa Calm   1.6 km/h 88 % 0 mm
21:46 25.3 °C 23.2 °C 1012.8 hPa SE 1.6 km/h 3.2 km/h 88 % 0 mm
21:51 25.3 °C 23.2 °C 1012.8 hPa Calm   3.2 km/h 88 % 0 mm
21:57 25.3 °C 23 °C 1012.8 hPa Calm   4.8 km/h 87 % 0 mm
22:02 25.3 °C 23 °C 1012.8 hPa Calm   4.8 km/h 87 % 0 mm
22:07 25.2 °C 22.9 °C 1013.1 hPa Calm   4.8 km/h 87 % 0 mm
22:12 25.2 °C 22.9 °C 1013.1 hPa Calm   4.8 km/h 87 % 0 mm
22:17 25.2 °C 22.9 °C 1013.1 hPa Calm   4.8 km/h 87 % 0 mm
22:22 25.1 °C 22.8 °C 1013.1 hPa Calm   4.8 km/h 87 % 0 mm
22:27 25.1 °C 23 °C 1013.1 hPa Calm   1.6 km/h 88 % 0 mm
22:32 24.9 °C 22.8 °C 1013.1 hPa Calm   1.6 km/h 88 % 0 mm
22:37 24.9 °C 22.8 °C 1013.1 hPa ESE 1.6 km/h 1.6 km/h 88 % 0 mm
22:42 24.8 °C 22.9 °C 1013.1 hPa SE 1.6 km/h 6.4 km/h 89 % 0 mm
22:47 24.8 °C 22.7 °C 1013.1 hPa Calm   6.4 km/h 88 % 0 mm
22:52 24.8 °C 22.7 °C 1013.1 hPa Calm   6.4 km/h 88 % 0 mm
22:57 24.7 °C 22.6 °C 1013.1 hPa Calm   4.8 km/h 88 % 0 mm
23:02 24.7 °C 22.6 °C 1013.1 hPa Calm   4.8 km/h 88 % 0 mm
23:07 24.7 °C 22.6 °C 1013.1 hPa ESE 1.6 km/h 4.8 km/h 88 % 0 mm
23:12 24.7 °C 22.6 °C 1013.1 hPa Calm   3.2 km/h 88 % 0 mm
23:17 24.7 °C 22.6 °C 1013.1 hPa Calm   3.2 km/h 88 % 0 mm
23:22 24.6 °C 22.5 °C 1013.1 hPa Calm   3.2 km/h 88 % 0 mm
23:27 24.6 °C 22.5 °C 1013.1 hPa Calm   1.6 km/h 88 % 0 mm
23:32 24.4 °C 22.3 °C 1013.1 hPa Calm   1.6 km/h 88 % 0 mm
23:37 24.3 °C 22.4 °C 1013.1 hPa Calm   1.6 km/h 89 % 0 mm
23:42 24.3 °C 22.4 °C 1013.1 hPa Calm   1.6 km/h 89 % 0 mm
23:47 24.3 °C 22.4 °C 1013.1 hPa Calm   1.6 km/h 89 % 0 mm
23:52 24.2 °C 22.3 °C 1013.1 hPa Calm   1.6 km/h 89 % 0 mm
23:57 24.1 °C 22.2 °C 1013.1 hPa Calm   1.6 km/h 89 % 0 mm
Spring, Texas: Villages of Bridgestone
Compliments of Weather Underground - 3.25 mb

Script developed by  Jim McMurry - jmcmurry@mwt.net Adapted for the template by  Wim van der Kuil - Leuven-Template.eu

You find our weather info also at:

UK Metoffice

WeatherCloud

Weather Underground

Mid-South Weather Network

AWEKAS

Citizen Weather Observer Program (CWOP)

HAMweather, WeatherForYou, PWS Weather

Equipment we use:

Weather-station
Davis Vantage Vue

Weather-program
Meteohub

Weather-server
Debian 7.9 x86 (Guest)

Provider
DreamHost

Davis Vantage Vue

Meteohub

Debian 7.9 x86 (Guest)

DreamHost